Terminal Aerodrome Forecast
Issued by NWS Paducah, KY

Home | Current Version | Previous Version | Graphics & Text | Print | Product List | Glossary On
Versions: 1 2 3 4 5 6 7 8 9 10 11 12 13 14 15 16 17
000
FTUS43 KPAH 260404 AAD
TAFPAH
TAF AMD
KPAH 260404Z 2604/2624 32005KT P6SM BKN015 OVC080
     FM260700 02008KT P6SM BKN010 OVC015
     FM261800 02008KT P6SM BKN018=

USA.gov is the U.S. government's official web portal to all federal, state and local government web resources and services.